East Barre, Vermont
Current Conditions -  °F | °C
As of 8:51 AM on Friday 24 Oct 2014 (Local Time) from KMPV Reporting Station
Overcast Overcast  
Wind Chill: 35°   Ceiling: 400
Heat Index: 40°   Visibility: 10mi
Dew Point: 39°   Wind: 7mph
Humidity: 97%   Direction: 320°NW
Pressure: 29.84"   Gusts: NA
Location:  44.16°N, 72.45°W
Report Text: KMPV 241251Z AUTO 32006KT 10SM OVC004 04/04 A2984 RMK AO2 SLP113 T00440039 $
Loading
Personal Weather Stations






























Interactive Weather Map
Tropical Storm Tracking
New forecast layout! Learn more

10-Day Weather Forecast

Advertisements
Track Severe Weather on mobile